sensor_id;sensor_type;location;lat;lon;timestamp;pressure;altitude;pressure_sealevel;temperature;humidity
45255;BME280;30989;52.078;21.014;2023-02-18T00:01:02;165665.28;;;7.30;97.02
45255;BME280;30989;52.078;21.014;2023-02-18T00:03:32;165633.22;;;7.18;97.77
45255;BME280;30989;52.078;21.014;2023-02-18T00:05:58;165627.88;;;7.16;100.00
45255;BME280;30989;52.078;21.014;2023-02-18T00:08:23;165625.19;;;7.15;100.00
45255;BME280;30989;52.078;21.014;2023-02-18T00:10:48;165606.50;;;7.07;92.24
45255;BME280;30989;52.078;21.014;2023-02-18T00:13:14;165605.16;;;7.07;93.34
45255;BME280;30989;52.078;21.014;2023-02-18T00:15:39;165593.13;;;7.02;91.85
45255;BME280;30989;52.078;21.014;2023-02-18T00:18:05;165585.09;;;6.99;94.72
45255;BME280;30989;52.078;21.014;2023-02-18T00:20:31;165557.03;;;6.89;93.24
45255;BME280;30989;52.078;21.014;2023-02-18T00:22:58;165538.34;;;6.82;91.55
45255;BME280;30989;52.078;21.014;2023-02-18T00:25:23;165531.66;;;6.79;92.17
45255;BME280;30989;52.078;21.014;2023-02-18T00:27:49;165534.34;;;6.80;89.35
45255;BME280;30989;52.078;21.014;2023-02-18T00:30:14;165535.66;;;6.81;89.25
45255;BME280;30989;52.078;21.014;2023-02-18T00:32:40;165538.34;;;6.82;90.56
45255;BME280;30989;52.078;21.014;2023-02-18T00:35:05;165516.97;;;6.73;90.79
45255;BME280;30989;52.078;21.014;2023-02-18T00:37:31;165512.97;;;6.72;88.90
45255;BME280;30989;52.078;21.014;2023-02-18T00:39:56;165506.28;;;6.69;90.34
45255;BME280;30989;52.078;21.014;2023-02-18T00:42:22;165500.94;;;6.67;87.78
45255;BME280;30989;52.078;21.014;2023-02-18T00:44:47;165510.28;;;6.71;90.63
45255;BME280;30989;52.078;21.014;2023-02-18T00:47:13;165494.25;;;6.65;88.76
45255;BME280;30989;52.078;21.014;2023-02-18T00:49:38;165506.28;;;6.69;88.57
45255;BME280;30989;52.078;21.014;2023-02-18T00:52:04;165503.59;;;6.68;92.11
45255;BME280;30989;52.078;21.014;2023-02-18T00:54:29;165487.56;;;6.62;88.15
45255;BME280;30989;52.078;21.014;2023-02-18T00:56:55;165482.22;;;6.60;88.58
45255;BME280;30989;52.078;21.014;2023-02-18T00:59:20;165468.88;;;6.55;89.05
45255;BME280;30989;52.078;21.014;2023-02-18T01:01:46;165471.53;;;6.56;88.98
45255;BME280;30989;52.078;21.014;2023-02-18T01:04:12;165468.88;;;6.55;88.42
45255;BME280;30989;52.078;21.014;2023-02-18T01:06:37;165462.19;;;6.53;87.98
45255;BME280;30989;52.078;21.014;2023-02-18T01:09:04;165460.84;;;6.52;90.51
45255;BME280;30989;52.078;21.014;2023-02-18T01:11:30;165466.19;;;6.54;85.87
45255;BME280;30989;52.078;21.014;2023-02-18T01:13:55;165466.19;;;6.54;86.12
45255;BME280;30989;52.078;21.014;2023-02-18T01:16:21;165470.22;;;6.56;86.02
45255;BME280;30989;52.078;21.014;2023-02-18T01:18:46;165462.19;;;6.53;87.39
45255;BME280;30989;52.078;21.014;2023-02-18T01:21:12;165462.19;;;6.53;86.66
45255;BME280;30989;52.078;21.014;2023-02-18T01:23:39;165460.84;;;6.52;87.12
45255;BME280;30989;52.078;21.014;2023-02-18T01:26:06;165470.22;;;6.56;86.82
45255;BME280;30989;52.078;21.014;2023-02-18T01:28:31;165451.50;;;6.49;87.91
45255;BME280;30989;52.078;21.014;2023-02-18T01:30:57;165463.53;;;6.53;87.50
45255;BME280;30989;52.078;21.014;2023-02-18T01:33:23;165458.19;;;6.51;86.23
45255;BME280;30989;52.078;21.014;2023-02-18T01:35:49;165466.19;;;6.54;87.47
45255;BME280;30989;52.078;21.014;2023-02-18T01:38:16;165468.88;;;6.55;86.79
45255;BME280;30989;52.078;21.014;2023-02-18T01:40:48;165471.53;;;6.56;86.45
45255;BME280;30989;52.078;21.014;2023-02-18T01:43:16;165466.19;;;6.54;86.69
45255;BME280;30989;52.078;21.014;2023-02-18T01:46:09;165466.19;;;6.54;85.14
45255;BME280;30989;52.078;21.014;2023-02-18T01:51:21;165478.22;;;6.59;85.12
45255;BME280;30989;52.078;21.014;2023-02-18T01:56:27;165460.84;;;6.52;86.80
45255;BME280;30989;52.078;21.014;2023-02-18T01:58:56;165452.84;;;6.49;84.50
45255;BME280;30989;52.078;21.014;2023-02-18T02:01:22;165463.53;;;6.53;83.43
45255;BME280;30989;52.078;21.014;2023-02-18T02:03:48;165458.19;;;6.51;83.35
45255;BME280;30989;52.078;21.014;2023-02-18T02:06:20;165466.19;;;6.54;84.51
45255;BME280;30989;52.078;21.014;2023-02-18T02:08:50;165466.19;;;6.54;84.99
45255;BME280;30989;52.078;21.014;2023-02-18T02:11:39;165462.19;;;6.53;83.68
45255;BME280;30989;52.078;21.014;2023-02-18T02:14:18;165447.50;;;6.47;83.77
45255;BME280;30989;52.078;21.014;2023-02-18T02:17:04;165444.84;;;6.46;84.49
45255;BME280;30989;52.078;21.014;2023-02-18T02:25:14;165435.47;;;6.42;84.21
45255;BME280;30989;52.078;21.014;2023-02-18T02:36:44;165395.41;;;6.27;84.34
45255;BME280;30989;52.078;21.014;2023-02-18T02:39:29;165390.06;;;6.25;85.44
45255;BME280;30989;52.078;21.014;2023-02-18T02:44:53;165375.38;;;6.20;85.00
45255;BME280;30989;52.078;21.014;2023-02-18T02:47:26;165372.72;;;6.19;85.25
45255;BME280;30989;52.078;21.014;2023-02-18T02:50:21;165367.38;;;6.17;84.39
45255;BME280;30989;52.078;21.014;2023-02-18T02:52:53;165358.03;;;6.13;84.84
45255;BME280;30989;52.078;21.014;2023-02-18T02:55:22;165346.00;;;6.08;85.46
45255;BME280;30989;52.078;21.014;2023-02-18T02:57:52;165348.66;;;6.09;84.80
45255;BME280;30989;52.078;21.014;2023-02-18T03:00:37;165340.66;;;6.06;84.59
45255;BME280;30989;52.078;21.014;2023-02-18T03:08:52;165324.63;;;6.00;85.37
45255;BME280;30989;52.078;21.014;2023-02-18T03:11:21;165315.28;;;5.97;85.63
45255;BME280;30989;52.078;21.014;2023-02-18T03:13:54;165311.28;;;5.95;85.12
45255;BME280;30989;52.078;21.014;2023-02-18T03:16:27;165305.94;;;5.93;84.71
45255;BME280;30989;52.078;21.014;2023-02-18T03:19:05;165291.19;;;5.88;84.55
45255;BME280;30989;52.078;21.014;2023-02-18T03:21:38;165296.59;;;5.90;84.68
45255;BME280;30989;52.078;21.014;2023-02-18T03:24:09;165288.53;;;5.87;85.20
45255;BME280;30989;52.078;21.014;2023-02-18T03:26:38;165281.84;;;5.84;86.23
45255;BME280;30989;52.078;21.014;2023-02-18T03:29:07;165241.81;;;5.69;85.55
45255;BME280;30989;52.078;21.014;2023-02-18T03:31:36;165252.47;;;5.73;85.18
45255;BME280;30989;52.078;21.014;2023-02-18T03:34:07;165249.81;;;5.72;86.23
45255;BME280;30989;52.078;21.014;2023-02-18T03:36:36;165243.13;;;5.69;86.08
45255;BME280;30989;52.078;21.014;2023-02-18T03:39:06;165225.78;;;5.63;86.50
45255;BME280;30989;52.078;21.014;2023-02-18T03:41:32;165229.78;;;5.64;85.87
45255;BME280;30989;52.078;21.014;2023-02-18T03:44:00;165223.09;;;5.62;86.54
45255;BME280;30989;52.078;21.014;2023-02-18T03:46:28;165199.09;;;5.53;86.58
45255;BME280;30989;52.078;21.014;2023-02-18T03:48:54;165204.41;;;5.55;86.93
45255;BME280;30989;52.078;21.014;2023-02-18T03:51:20;165192.41;;;5.50;86.63
45255;BME280;30989;52.078;21.014;2023-02-18T03:53:46;165185.72;;;5.47;87.67
45255;BME280;30989;52.078;21.014;2023-02-18T03:56:11;165191.06;;;5.49;87.15
45255;BME280;30989;52.078;21.014;2023-02-18T03:58:37;165180.41;;;5.45;87.06
45255;BME280;30989;52.078;21.014;2023-02-18T04:01:03;165169.72;;;5.41;87.12
45255;BME280;30989;52.078;21.014;2023-02-18T04:03:29;165169.72;;;5.41;87.28
45255;BME280;30989;52.078;21.014;2023-02-18T04:05:54;165164.38;;;5.39;86.79
45255;BME280;30989;52.078;21.014;2023-02-18T04:08:20;165160.38;;;5.38;87.68
45255;BME280;30989;52.078;21.014;2023-02-18T04:10:45;165151.03;;;5.34;86.64
45255;BME280;30989;52.078;21.014;2023-02-18T04:13:11;165148.34;;;5.33;86.96
45255;BME280;30989;52.078;21.014;2023-02-18T04:15:37;165143.03;;;5.31;87.33
45255;BME280;30989;52.078;21.014;2023-02-18T04:18:02;165127.00;;;5.25;86.42
45255;BME280;30989;52.078;21.014;2023-02-18T04:20:28;165133.69;;;5.28;86.41
45255;BME280;30989;52.078;21.014;2023-02-18T04:22:53;165135.00;;;5.28;86.39
45255;BME280;30989;52.078;21.014;2023-02-18T04:25:19;165133.69;;;5.28;86.46
45255;BME280;30989;52.078;21.014;2023-02-18T04:27:44;165143.03;;;5.31;85.41
45255;BME280;30989;52.078;21.014;2023-02-18T04:30:10;165129.69;;;5.26;85.88
45255;BME280;30989;52.078;21.014;2023-02-18T04:32:36;165137.69;;;5.29;85.46
45255;BME280;30989;52.078;21.014;2023-02-18T04:35:01;165137.69;;;5.29;85.79
45255;BME280;30989;52.078;21.014;2023-02-18T04:37:27;165136.34;;;5.29;85.62
45255;BME280;30989;52.078;21.014;2023-02-18T04:39:53;165102.94;;;5.16;85.81
45255;BME280;30989;52.078;21.014;2023-02-18T04:42:18;165115.00;;;5.21;86.68
45255;BME280;30989;52.078;21.014;2023-02-18T04:44:44;165110.94;;;5.19;85.44
45255;BME280;30989;52.078;21.014;2023-02-18T04:47:09;165116.31;;;5.21;85.77
45255;BME280;30989;52.078;21.014;2023-02-18T04:49:35;165113.66;;;5.20;85.73
45255;BME280;30989;52.078;21.014;2023-02-18T04:52:01;165105.59;;;5.17;86.12
45255;BME280;30989;52.078;21.014;2023-02-18T04:54:26;165112.28;;;5.19;85.47
45255;BME280;30989;52.078;21.014;2023-02-18T04:56:52;165116.31;;;5.21;85.96
45255;BME280;30989;52.078;21.014;2023-02-18T04:59:17;165110.94;;;5.19;86.16
45255;BME280;30989;52.078;21.014;2023-02-18T05:01:43;165089.59;;;5.11;86.10
45255;BME280;30989;52.078;21.014;2023-02-18T05:04:08;165086.91;;;5.10;86.21
45255;BME280;30989;52.078;21.014;2023-02-18T05:06:34;165081.59;;;5.08;85.11
45255;BME280;30989;52.078;21.014;2023-02-18T05:08:59;165078.91;;;5.07;85.61
45255;BME280;30989;52.078;21.014;2023-02-18T05:11:24;165069.56;;;5.03;85.53
45255;BME280;30989;52.078;21.014;2023-02-18T05:13:50;165069.56;;;5.03;85.69
45255;BME280;30989;52.078;21.014;2023-02-18T05:16:15;165068.22;;;5.03;86.69
45255;BME280;30989;52.078;21.014;2023-02-18T05:18:41;165057.56;;;4.99;85.83
45255;BME280;30989;52.078;21.014;2023-02-18T05:21:07;165046.88;;;4.95;85.70
45255;BME280;30989;52.078;21.014;2023-02-18T05:23:32;165050.88;;;4.96;86.09
45255;BME280;30989;52.078;21.014;2023-02-18T05:25:58;165046.88;;;4.95;86.40
45255;BME280;30989;52.078;21.014;2023-02-18T05:28:24;165054.88;;;4.98;86.12
45255;BME280;30989;52.078;21.014;2023-02-18T05:30:49;165050.88;;;4.96;86.43
45255;BME280;30989;52.078;21.014;2023-02-18T05:33:15;165057.56;;;4.99;85.85
45255;BME280;30989;52.078;21.014;2023-02-18T05:35:40;165058.91;;;4.99;85.48
45255;BME280;30989;52.078;21.014;2023-02-18T05:38:06;165056.22;;;4.98;85.12
45255;BME280;30989;52.078;21.014;2023-02-18T05:40:31;165072.25;;;5.04;85.52
45255;BME280;30989;52.078;21.014;2023-02-18T05:42:57;165084.25;;;5.09;84.87
45255;BME280;30989;52.078;21.014;2023-02-18T05:45:22;165078.91;;;5.07;85.51
45255;BME280;30989;52.078;21.014;2023-02-18T05:47:47;165086.91;;;5.10;85.44
45255;BME280;30989;52.078;21.014;2023-02-18T05:50:13;165086.91;;;5.10;84.89
45255;BME280;30989;52.078;21.014;2023-02-18T05:52:38;165084.25;;;5.09;84.81
45255;BME280;30989;52.078;21.014;2023-02-18T05:55:04;165089.59;;;5.11;85.14
45255;BME280;30989;52.078;21.014;2023-02-18T05:57:30;165078.91;;;5.07;85.73
45255;BME280;30989;52.078;21.014;2023-02-18T05:59:55;165078.91;;;5.07;85.27
45255;BME280;30989;52.078;21.014;2023-02-18T06:02:21;165078.91;;;5.07;84.72
45255;BME280;30989;52.078;21.014;2023-02-18T06:04:46;165084.25;;;5.09;85.38
45255;BME280;30989;52.078;21.014;2023-02-18T06:07:12;165093.59;;;5.12;84.56
45255;BME280;30989;52.078;21.014;2023-02-18T06:09:37;165097.59;;;5.14;84.85
45255;BME280;30989;52.078;21.014;2023-02-18T06:12:03;165097.59;;;5.14;84.49
45255;BME280;30989;52.078;21.014;2023-02-18T06:14:28;165085.59;;;5.09;85.33
45255;BME280;30989;52.078;21.014;2023-02-18T06:16:54;165093.59;;;5.12;84.58
45255;BME280;30989;52.078;21.014;2023-02-18T06:19:19;165098.94;;;5.14;84.01
45255;BME280;30989;52.078;21.014;2023-02-18T06:21:45;165113.66;;;5.20;83.63
45255;BME280;30989;52.078;21.014;2023-02-18T06:24:10;165120.34;;;5.23;83.64
45255;BME280;30989;52.078;21.014;2023-02-18T06:26:36;165125.66;;;5.25;83.49
45255;BME280;30989;52.078;21.014;2023-02-18T06:29:02;165124.34;;;5.24;84.12
45255;BME280;30989;52.078;21.014;2023-02-18T06:31:28;165125.66;;;5.25;84.21
45255;BME280;30989;52.078;21.014;2023-02-18T06:33:53;165117.66;;;5.22;85.36
45255;BME280;30989;52.078;21.014;2023-02-18T06:36:18;165124.34;;;5.24;83.86
45255;BME280;30989;52.078;21.014;2023-02-18T06:38:45;165123.00;;;5.24;84.06
45255;BME280;30989;52.078;21.014;2023-02-18T06:41:12;165129.69;;;5.26;84.45
45255;BME280;30989;52.078;21.014;2023-02-18T06:43:38;165117.66;;;5.22;83.92
45255;BME280;30989;52.078;21.014;2023-02-18T06:46:04;165119.00;;;5.22;84.01
45255;BME280;30989;52.078;21.014;2023-02-18T06:48:29;165124.34;;;5.24;83.78
45255;BME280;30989;52.078;21.014;2023-02-18T06:50:55;165123.00;;;5.24;83.76
45255;BME280;30989;52.078;21.014;2023-02-18T06:53:20;165125.66;;;5.25;83.72
45255;BME280;30989;52.078;21.014;2023-02-18T06:55:46;165116.31;;;5.21;83.71
45255;BME280;30989;52.078;21.014;2023-02-18T06:58:13;165115.00;;;5.21;83.15
45255;BME280;30989;52.078;21.014;2023-02-18T07:00:39;165132.34;;;5.27;83.23
45255;BME280;30989;52.078;21.014;2023-02-18T07:03:04;165144.34;;;5.32;84.03
45255;BME280;30989;52.078;21.014;2023-02-18T07:05:30;165128.34;;;5.26;83.68
45255;BME280;30989;52.078;21.014;2023-02-18T07:07:56;165140.34;;;5.30;83.24
45255;BME280;30989;52.078;21.014;2023-02-18T07:10:21;165143.03;;;5.31;82.29
45255;BME280;30989;52.078;21.014;2023-02-18T07:12:47;165145.69;;;5.32;83.53
45255;BME280;30989;52.078;21.014;2023-02-18T07:15:12;165140.34;;;5.30;83.81
45255;BME280;30989;52.078;21.014;2023-02-18T07:17:38;165140.34;;;5.30;82.70
45255;BME280;30989;52.078;21.014;2023-02-18T07:20:04;165121.66;;;5.23;83.92
45255;BME280;30989;52.078;21.014;2023-02-18T07:22:30;165143.03;;;5.31;82.69
45255;BME280;30989;52.078;21.014;2023-02-18T07:24:55;165137.69;;;5.29;83.36
45255;BME280;30989;52.078;21.014;2023-02-18T07:27:21;165148.34;;;5.33;84.07
45255;BME280;30989;52.078;21.014;2023-02-18T07:29:47;165149.69;;;5.34;83.82
45255;BME280;30989;52.078;21.014;2023-02-18T07:32:14;165137.69;;;5.29;82.95
45255;BME280;30989;52.078;21.014;2023-02-18T07:34:40;165141.69;;;5.31;83.00
45255;BME280;30989;52.078;21.014;2023-02-18T07:37:06;165151.03;;;5.34;83.41
45255;BME280;30989;52.078;21.014;2023-02-18T07:39:39;165149.69;;;5.34;83.29
45255;BME280;30989;52.078;21.014;2023-02-18T07:42:05;165140.34;;;5.30;82.66
45255;BME280;30989;52.078;21.014;2023-02-18T07:44:31;165164.38;;;5.39;83.00
45255;BME280;30989;52.078;21.014;2023-02-18T07:46:57;165153.69;;;5.35;82.30
45255;BME280;30989;52.078;21.014;2023-02-18T07:49:23;165165.72;;;5.40;83.17
45255;BME280;30989;52.078;21.014;2023-02-18T07:51:48;165161.72;;;5.38;82.84
45255;BME280;30989;52.078;21.014;2023-02-18T07:54:14;165152.38;;;5.35;82.75
45255;BME280;30989;52.078;21.014;2023-02-18T07:56:40;165180.41;;;5.45;84.09
45255;BME280;30989;52.078;21.014;2023-02-18T07:59:07;165185.72;;;5.47;82.83
45255;BME280;30989;52.078;21.014;2023-02-18T08:01:33;165193.75;;;5.50;82.62
45255;BME280;30989;52.078;21.014;2023-02-18T08:03:59;165191.06;;;5.49;80.75
45255;BME280;30989;52.078;21.014;2023-02-18T08:06:27;165204.41;;;5.55;81.16
45255;BME280;30989;52.078;21.014;2023-02-18T08:08:54;165215.09;;;5.59;81.52
45255;BME280;30989;52.078;21.014;2023-02-18T08:11:19;165225.78;;;5.63;80.93
45255;BME280;30989;52.078;21.014;2023-02-18T08:13:46;165225.78;;;5.63;81.70
45255;BME280;30989;52.078;21.014;2023-02-18T08:16:12;165231.13;;;5.65;81.09
45255;BME280;30989;52.078;21.014;2023-02-18T08:18:37;165229.78;;;5.64;81.40
45255;BME280;30989;52.078;21.014;2023-02-18T08:21:03;165215.09;;;5.59;80.87
45255;BME280;30989;52.078;21.014;2023-02-18T08:23:28;165220.44;;;5.61;81.87
45255;BME280;30989;52.078;21.014;2023-02-18T08:25:54;165235.13;;;5.66;82.29
45255;BME280;30989;52.078;21.014;2023-02-18T08:28:21;165281.84;;;5.84;81.37
45255;BME280;30989;52.078;21.014;2023-02-18T08:30:48;165308.59;;;5.94;80.61
45255;BME280;30989;52.078;21.014;2023-02-18T08:33:14;165296.59;;;5.90;79.25
45255;BME280;30989;52.078;21.014;2023-02-18T08:35:40;165297.94;;;5.90;79.46
45255;BME280;30989;52.078;21.014;2023-02-18T08:38:06;165308.59;;;5.94;79.25
45255;BME280;30989;52.078;21.014;2023-02-18T08:40:31;165297.94;;;5.90;79.33
45255;BME280;30989;52.078;21.014;2023-02-18T08:42:57;165308.59;;;5.94;80.39
45255;BME280;30989;52.078;21.014;2023-02-18T08:45:22;165291.19;;;5.88;79.35
45255;BME280;30989;52.078;21.014;2023-02-18T08:47:48;165296.59;;;5.90;78.09
45255;BME280;30989;52.078;21.014;2023-02-18T08:50:13;165332.66;;;6.03;78.79
45255;BME280;30989;52.078;21.014;2023-02-18T08:52:39;165354.00;;;6.11;78.65
45255;BME280;30989;52.078;21.014;2023-02-18T08:55:05;165375.38;;;6.20;78.66
45255;BME280;30989;52.078;21.014;2023-02-18T08:57:31;165368.69;;;6.17;78.62
45255;BME280;30989;52.078;21.014;2023-02-18T08:59:57;165362.03;;;6.14;77.68
45255;BME280;30989;52.078;21.014;2023-02-18T09:02:22;165338.00;;;6.05;77.01
45255;BME280;30989;52.078;21.014;2023-02-18T09:04:48;165327.31;;;6.01;77.07
45255;BME280;30989;52.078;21.014;2023-02-18T09:07:13;165320.63;;;5.99;77.66
45255;BME280;30989;52.078;21.014;2023-02-18T09:09:39;165317.97;;;5.98;78.48
45255;BME280;30989;52.078;21.014;2023-02-18T09:12:04;165297.94;;;5.90;78.64
45255;BME280;30989;52.078;21.014;2023-02-18T09:14:30;165299.25;;;5.91;77.55
45255;BME280;30989;52.078;21.014;2023-02-18T09:16:56;165308.59;;;5.94;78.48
45255;BME280;30989;52.078;21.014;2023-02-18T09:19:22;165319.28;;;5.98;77.78
45255;BME280;30989;52.078;21.014;2023-02-18T09:21:48;165339.31;;;6.06;77.21
45255;BME280;30989;52.078;21.014;2023-02-18T09:24:14;165362.03;;;6.14;77.64
45255;BME280;30989;52.078;21.014;2023-02-18T09:26:39;165376.72;;;6.20;77.00
45255;BME280;30989;52.078;21.014;2023-02-18T09:29:05;165370.03;;;6.18;76.77
45255;BME280;30989;52.078;21.014;2023-02-18T09:31:30;165362.03;;;6.14;76.85
45255;BME280;30989;52.078;21.014;2023-02-18T09:33:59;165359.34;;;6.13;76.71
45255;BME280;30989;52.078;21.014;2023-02-18T09:36:25;165325.97;;;6.01;76.55
45255;BME280;30989;52.078;21.014;2023-02-18T09:38:51;165336.66;;;6.05;76.75
45255;BME280;30989;52.078;21.014;2023-02-18T09:41:29;165324.63;;;6.00;76.91
45255;BME280;30989;52.078;21.014;2023-02-18T09:44:03;165335.31;;;6.04;77.71
45255;BME280;30989;52.078;21.014;2023-02-18T09:46:38;165360.69;;;6.14;77.24
45255;BME280;30989;52.078;21.014;2023-02-18T09:49:15;165372.72;;;6.19;77.03
45255;BME280;30989;52.078;21.014;2023-02-18T09:51:41;165386.06;;;6.24;77.01
45255;BME280;30989;52.078;21.014;2023-02-18T09:54:11;165395.41;;;6.27;78.02
45255;BME280;30989;52.078;21.014;2023-02-18T09:56:39;165392.75;;;6.26;76.97
45255;BME280;30989;52.078;21.014;2023-02-18T09:59:05;165383.41;;;6.23;77.02
45255;BME280;30989;52.078;21.014;2023-02-18T10:01:38;165394.06;;;6.27;77.14
45255;BME280;30989;52.078;21.014;2023-02-18T10:07:25;165391.41;;;6.26;77.56
45255;BME280;30989;52.078;21.014;2023-02-18T10:09:53;165392.75;;;6.26;77.26
45255;BME280;30989;52.078;21.014;2023-02-18T10:12:22;165359.34;;;6.13;76.50
45255;BME280;30989;52.078;21.014;2023-02-18T10:14:53;165394.06;;;6.27;76.86
45255;BME280;30989;52.078;21.014;2023-02-18T10:17:22;165383.41;;;6.23;76.63
45255;BME280;30989;52.078;21.014;2023-02-18T10:19:49;165376.72;;;6.20;77.31
45255;BME280;30989;52.078;21.014;2023-02-18T10:22:16;165363.34;;;6.15;77.36
45255;BME280;30989;52.078;21.014;2023-02-18T10:24:49;165380.72;;;6.22;78.40
45255;BME280;30989;52.078;21.014;2023-02-18T10:27:48;165394.06;;;6.27;79.87
45255;BME280;30989;52.078;21.014;2023-02-18T10:30:35;165415.44;;;6.35;78.16
45255;BME280;30989;52.078;21.014;2023-02-18T10:38:25;165459.53;;;6.52;77.76
45255;BME280;30989;52.078;21.014;2023-02-18T10:41:34;165471.53;;;6.56;77.62
45255;BME280;30989;52.078;21.014;2023-02-18T10:51:57;165487.56;;;6.62;76.24
45255;BME280;30989;52.078;21.014;2023-02-18T10:54:25;165455.50;;;6.50;76.60
45255;BME280;30989;52.078;21.014;2023-02-18T10:56:57;165448.84;;;6.47;77.61
45255;BME280;30989;52.078;21.014;2023-02-18T10:59:25;165464.88;;;6.54;78.36
45255;BME280;30989;52.078;21.014;2023-02-18T11:01:57;165470.22;;;6.56;78.43
45255;BME280;30989;52.078;21.014;2023-02-18T11:04:47;165456.84;;;6.51;76.96
45255;BME280;30989;52.078;21.014;2023-02-18T11:07:14;165423.47;;;6.38;77.99
45255;BME280;30989;52.078;21.014;2023-02-18T11:09:51;165420.78;;;6.37;76.94
45255;BME280;30989;52.078;21.014;2023-02-18T11:12:29;165423.47;;;6.38;78.36
45255;BME280;30989;52.078;21.014;2023-02-18T11:15:18;165439.50;;;6.44;76.61
45255;BME280;30989;52.078;21.014;2023-02-18T11:17:53;165438.16;;;6.43;77.07
45255;BME280;30989;52.078;21.014;2023-02-18T11:23:19;165426.13;;;6.39;76.47
45255;BME280;30989;52.078;21.014;2023-02-18T11:26:03;165428.81;;;6.40;77.25
45255;BME280;30989;52.078;21.014;2023-02-18T11:28:36;165427.47;;;6.39;77.39
45255;BME280;30989;52.078;21.014;2023-02-18T11:31:04;165415.44;;;6.35;76.76
45255;BME280;30989;52.078;21.014;2023-02-18T11:36:03;165404.75;;;6.31;76.76
45255;BME280;30989;52.078;21.014;2023-02-18T11:38:43;165407.44;;;6.32;77.35
45255;BME280;30989;52.078;21.014;2023-02-18T11:41:17;165410.09;;;6.33;77.65
45255;BME280;30989;52.078;21.014;2023-02-18T11:43:48;165436.81;;;6.43;76.98
45255;BME280;30989;52.078;21.014;2023-02-18T11:46:22;165448.84;;;6.47;77.41
45255;BME280;30989;52.078;21.014;2023-02-18T11:48:49;165486.25;;;6.62;76.91
45255;BME280;30989;52.078;21.014;2023-02-18T11:51:24;165500.94;;;6.67;75.94
45255;BME280;30989;52.078;21.014;2023-02-18T11:53:59;165522.31;;;6.75;75.35
45255;BME280;30989;52.078;21.014;2023-02-18T11:56:27;165516.97;;;6.73;74.73
45255;BME280;30989;52.078;21.014;2023-02-18T11:58:53;165514.28;;;6.72;74.82
45255;BME280;30989;52.078;21.014;2023-02-18T12:01:45;165526.31;;;6.77;75.39
45255;BME280;30989;52.078;21.014;2023-02-18T12:04:15;165499.59;;;6.67;75.50
45255;BME280;30989;52.078;21.014;2023-02-18T12:06:50;165498.25;;;6.66;75.32
45255;BME280;30989;52.078;21.014;2023-02-18T12:09:38;165510.28;;;6.71;75.92
45255;BME280;30989;52.078;21.014;2023-02-18T12:12:10;165504.94;;;6.69;75.17
45255;BME280;30989;52.078;21.014;2023-02-18T12:14:37;165484.91;;;6.61;76.11
45255;BME280;30989;52.078;21.014;2023-02-18T12:20:18;165488.91;;;6.63;74.66
45255;BME280;30989;52.078;21.014;2023-02-18T12:23:15;165475.56;;;6.58;75.14
45255;BME280;30989;52.078;21.014;2023-02-18T12:39:11;165531.66;;;6.79;73.59
45255;BME280;30989;52.078;21.014;2023-02-18T12:44:30;165508.94;;;6.70;74.01
45255;BME280;30989;52.078;21.014;2023-02-18T12:50:21;165495.59;;;6.65;75.37
45255;BME280;30989;52.078;21.014;2023-02-18T12:52:59;165495.59;;;6.65;74.85
45255;BME280;30989;52.078;21.014;2023-02-18T13:01:21;165581.09;;;6.98;76.39
45255;BME280;30989;52.078;21.014;2023-02-18T13:06:45;165607.81;;;7.08;72.88
45255;BME280;30989;52.078;21.014;2023-02-18T13:11:58;165554.38;;;6.88;74.03
45255;BME280;30989;52.078;21.014;2023-02-18T13:14:32;165535.66;;;6.81;73.75
45255;BME280;30989;52.078;21.014;2023-02-18T13:17:03;165508.94;;;6.70;74.28
45255;BME280;30989;52.078;21.014;2023-02-18T13:19:41;165512.97;;;6.72;73.45
45255;BME280;30989;52.078;21.014;2023-02-18T13:22:11;165491.59;;;6.64;74.16
45255;BME280;30989;52.078;21.014;2023-02-18T13:24:47;165478.22;;;6.59;73.42
45255;BME280;30989;52.078;21.014;2023-02-18T13:30:47;165428.81;;;6.40;74.75
45255;BME280;30989;52.078;21.014;2023-02-18T13:32:43;165434.16;;;6.42;75.64
45255;BME280;30989;52.078;21.014;2023-02-18T13:37:45;165434.16;;;6.42;74.85
45255;BME280;30989;52.078;21.014;2023-02-18T13:40:20;165423.47;;;6.38;75.80
45255;BME280;30989;52.078;21.014;2023-02-18T13:42:51;165426.13;;;6.39;76.21
45255;BME280;30989;52.078;21.014;2023-02-18T13:45:31;165408.75;;;6.32;75.81
45255;BME280;30989;52.078;21.014;2023-02-18T13:47:58;165415.44;;;6.35;75.57
45255;BME280;30989;52.078;21.014;2023-02-18T13:58:41;165406.09;;;6.31;75.90
45255;BME280;30989;52.078;21.014;2023-02-18T14:08:39;165392.75;;;6.26;77.86
45255;BME280;30989;52.078;21.014;2023-02-18T14:13:46;165383.41;;;6.23;78.08
45255;BME280;30989;52.078;21.014;2023-02-18T14:16:14;165388.72;;;6.25;77.83
45255;BME280;30989;52.078;21.014;2023-02-18T14:33:34;165375.38;;;6.20;80.31
45255;BME280;30989;52.078;21.014;2023-02-18T14:36:24;165376.72;;;6.20;79.90
45255;BME280;30989;52.078;21.014;2023-02-18T14:50:12;165354.00;;;6.11;80.72
45255;BME280;30989;52.078;21.014;2023-02-18T14:52:49;165360.69;;;6.14;79.15
45255;BME280;30989;52.078;21.014;2023-02-18T14:55:20;165359.34;;;6.13;80.28
45255;BME280;30989;52.078;21.014;2023-02-18T14:57:50;165339.31;;;6.06;80.57
45255;BME280;30989;52.078;21.014;2023-02-18T15:00:23;165296.59;;;5.90;81.74
45255;BME280;30989;52.078;21.014;2023-02-18T15:02:52;165253.81;;;5.73;82.91
45255;BME280;30989;52.078;21.014;2023-02-18T15:08:12;165199.09;;;5.53;85.04
45255;BME280;30989;52.078;21.014;2023-02-18T15:10:39;165169.72;;;5.41;88.22
45255;BME280;30989;52.078;21.014;2023-02-18T15:13:42;165104.28;;;5.16;90.11
45255;BME280;30989;52.078;21.014;2023-02-18T15:16:13;165065.56;;;5.02;92.82